Time;durP1;ratioP1;P1;durP2;ratioP2;P2;SDS_P1;SDS_P2;PMS_P1;PMS_P2;Temp;Humidity;BMP_temperature;BMP_pressure;BME280_temperature;BME280_humidity;BME280_pressure;Samples;Min_cycle;Max_cycle;Signal;HPM_P1;HPM_P2
2022/07/19 00:00:16;;;;;;;7.13;3.25;;;;;;;;;;5097802;28;20201;-68
2022/07/19 00:02:45;;;;;;;5.43;3.95;;;;;;;;;;5092155;28;20212;-67
2022/07/19 00:05:15;;;;;;;5.88;3.72;;;;;;;;;;5092622;28;20293;-67
2022/07/19 00:07:43;;;;;;;8.52;4.10;;;;;;;;;;5079947;28;20201;-67
2022/07/19 00:10:12;;;;;;;7.07;3.90;;;;;;;;;;5077019;28;20553;-67
2022/07/19 00:12:40;;;;;;;9.23;4.15;;;;;;;;;;5092820;28;20562;-67
2022/07/19 00:15:10;;;;;;;6.95;4.40;;;;;;;;;;5098075;28;20691;-68
2022/07/19 00:17:40;;;;;;;7.30;4.10;;;;;;;;;;5088454;28;20216;-68
2022/07/19 00:20:10;;;;;;;9.13;3.80;;;;;;;;;;5081405;28;20226;-68
2022/07/19 00:22:38;;;;;;;5.40;4.05;;;;;;;;;;5077281;28;20271;-68
2022/07/19 00:25:07;;;;;;;5.20;3.65;;;;;;;;;;5083513;28;20280;-68
2022/07/19 00:27:35;;;;;;;5.65;4.03;;;;;;;;;;5094770;28;20266;-68
2022/07/19 00:30:04;;;;;;;8.40;3.85;;;;;;;;;;5091794;28;20225;-68
2022/07/19 00:32:32;;;;;;;6.43;4.45;;;;;;;;;;5094130;28;20208;-68
2022/07/19 00:35:00;;;;;;;5.57;3.90;;;;;;;;;;5094940;28;20263;-68
2022/07/19 00:37:29;;;;;;;4.93;4.03;;;;;;;;;;5093727;28;20209;-68
2022/07/19 00:39:57;;;;;;;6.25;3.60;;;;;;;;;;5088633;28;20307;-68
2022/07/19 00:42:25;;;;;;;8.88;4.07;;;;;;;;;;5082699;28;20699;-68
2022/07/19 00:44:53;;;;;;;4.95;3.67;;;;;;;;;;5086809;28;20228;-68
2022/07/19 00:47:21;;;;;;;6.20;3.80;;;;;;;;;;5094682;28;20231;-68
2022/07/19 00:49:49;;;;;;;5.43;3.88;;;;;;;;;;5095741;28;20194;-69
2022/07/19 00:52:19;;;;;;;6.80;4.50;;;;;;;;;;5092574;28;20197;-68
2022/07/19 00:54:49;;;;;;;7.68;4.22;;;;;;;;;;5092541;28;20248;-68
2022/07/19 00:57:17;;;;;;;5.45;4.07;;;;;;;;;;5099426;28;20200;-68
2022/07/19 00:59:47;;;;;;;5.32;4.10;;;;;;;;;;5104639;28;20726;-68
2022/07/19 01:02:15;;;;;;;7.80;4.28;;;;;;;;;;5102077;28;20201;-68
2022/07/19 01:04:43;;;;;;;5.50;4.00;;;;;;;;;;5106269;28;20256;-68
2022/07/19 01:07:11;;;;;;;5.60;4.03;;;;;;;;;;5105550;28;20257;-68
2022/07/19 01:09:39;;;;;;;5.93;3.40;;;;;;;;;;5101865;28;20193;-68
2022/07/19 01:12:09;;;;;;;4.75;4.28;;;;;;;;;;5102422;28;20233;-68
2022/07/19 01:14:37;;;;;;;4.60;4.20;;;;;;;;;;5105560;28;20305;-68
2022/07/19 01:17:05;;;;;;;6.18;4.25;;;;;;;;;;5103193;28;20698;-68
2022/07/19 01:19:33;;;;;;;7.85;4.15;;;;;;;;;;5109998;28;20307;-68
2022/07/19 01:22:03;;;;;;;8.93;4.15;;;;;;;;;;5104773;28;20193;-68
2022/07/19 01:24:31;;;;;;;6.28;4.18;;;;;;;;;;5109158;28;20618;-68
2022/07/19 01:26:59;;;;;;;5.13;4.07;;;;;;;;;;5101796;28;20224;-68
2022/07/19 01:29:27;;;;;;;6.50;4.22;;;;;;;;;;5099534;28;20205;-68
2022/07/19 01:31:55;;;;;;;7.13;4.00;;;;;;;;;;5102559;28;20198;-69
2022/07/19 01:34:23;;;;;;;4.32;3.92;;;;;;;;;;5100374;28;20248;-68
2022/07/19 01:36:51;;;;;;;4.65;4.15;;;;;;;;;;5106882;28;20248;-68
2022/07/19 01:39:20;;;;;;;4.70;4.18;;;;;;;;;;5109313;28;20269;-68
2022/07/19 01:41:48;;;;;;;4.25;3.50;;;;;;;;;;5109625;28;20219;-68
2022/07/19 01:44:16;;;;;;;4.38;3.72;;;;;;;;;;5098285;28;20220;-68
2022/07/19 01:46:44;;;;;;;9.98;4.28;;;;;;;;;;5099409;28;20208;-68
2022/07/19 01:49:12;;;;;;;7.28;3.95;;;;;;;;;;5110163;28;20200;-68
2022/07/19 01:51:40;;;;;;;6.05;4.00;;;;;;;;;;5108853;28;20193;-68
2022/07/19 01:54:08;;;;;;;4.72;4.18;;;;;;;;;;5101467;28;20244;-68
2022/07/19 01:56:42;;;;;;;4.90;3.88;;;;;;;;;;5108952;28;20228;-68
2022/07/19 01:59:10;;;;;;;7.28;4.88;;;;;;;;;;5107612;28;20224;-68
2022/07/19 02:01:38;;;;;;;4.55;4.25;;;;;;;;;;5105177;28;20232;-69
2022/07/19 02:04:06;;;;;;;5.90;4.47;;;;;;;;;;5108181;28;20247;-68
2022/07/19 02:06:34;;;;;;;4.63;4.22;;;;;;;;;;5107845;28;20196;-68
2022/07/19 02:09:02;;;;;;;5.32;4.30;;;;;;;;;;5105336;28;20693;-68
2022/07/19 02:11:36;;;;;;;4.32;3.95;;;;;;;;;;5102526;28;20229;-68
2022/07/19 02:14:06;;;;;;;6.60;4.00;;;;;;;;;;5109926;28;20269;-68
2022/07/19 02:16:35;;;;;;;5.35;3.88;;;;;;;;;;5104682;28;20602;-68
2022/07/19 02:19:03;;;;;;;4.75;4.38;;;;;;;;;;5108854;28;20225;-67
2022/07/19 02:21:31;;;;;;;7.33;4.27;;;;;;;;;;5107066;28;20304;-67
2022/07/19 02:23:59;;;;;;;4.47;4.07;;;;;;;;;;5097913;28;20240;-66
2022/07/19 02:26:27;;;;;;;4.90;4.40;;;;;;;;;;5099851;28;20210;-67
2022/07/19 02:29:03;;;;;;;5.53;4.70;;;;;;;;;;5102536;28;20199;-62
2022/07/19 02:31:32;;;;;;;7.67;4.60;;;;;;;;;;5088734;28;20616;-62
2022/07/19 02:34:01;;;;;;;7.63;4.90;;;;;;;;;;5099281;28;20692;-64
2022/07/19 02:36:29;;;;;;;7.00;5.63;;;;;;;;;;5089452;28;20243;-64
2022/07/19 02:38:58;;;;;;;6.90;4.97;;;;;;;;;;5098699;28;20258;-64
2022/07/19 02:41:26;;;;;;;9.33;4.80;;;;;;;;;;5088189;28;20208;-64
2022/07/19 02:43:54;;;;;;;6.47;4.80;;;;;;;;;;5098731;28;20247;-62
2022/07/19 02:46:22;;;;;;;6.33;4.80;;;;;;;;;;5090661;28;20238;-62
2022/07/19 02:48:51;;;;;;;6.30;4.37;;;;;;;;;;5082722;28;20318;-62
2022/07/19 02:51:20;;;;;;;8.70;4.30;;;;;;;;;;5079639;28;20220;-62
2022/07/19 02:53:48;;;;;;;5.70;4.47;;;;;;;;;;5082938;28;20228;-62
2022/07/19 02:56:15;;;;;;;7.20;4.50;;;;;;;;;;5099190;28;20243;-62
2022/07/19 02:58:43;;;;;;;4.60;4.10;;;;;;;;;;5098523;28;20234;-62
2022/07/19 03:01:11;;;;;;;5.47;4.40;;;;;;;;;;5098646;28;20259;-62
2022/07/19 03:03:47;;;;;;;4.83;4.43;;;;;;;;;;5099059;28;20246;-62
2022/07/19 03:06:17;;;;;;;5.70;4.63;;;;;;;;;;5080087;28;20207;-62
2022/07/19 03:08:45;;;;;;;5.63;4.10;;;;;;;;;;5097482;28;20571;-62
2022/07/19 03:11:14;;;;;;;5.37;4.77;;;;;;;;;;5081989;28;20282;-62
2022/07/19 03:13:42;;;;;;;5.80;4.40;;;;;;;;;;5082647;28;20266;-62
2022/07/19 03:16:10;;;;;;;5.27;4.77;;;;;;;;;;5080118;28;20209;-62
2022/07/19 03:18:38;;;;;;;5.17;4.40;;;;;;;;;;5082594;28;20203;-62
2022/07/19 03:21:06;;;;;;;5.63;4.27;;;;;;;;;;5092569;28;20258;-61
2022/07/19 03:23:36;;;;;;;5.03;4.27;;;;;;;;;;5091803;28;20243;-62
2022/07/19 03:26:05;;;;;;;5.27;4.03;;;;;;;;;;5092519;28;20211;-65
2022/07/19 03:28:33;;;;;;;4.70;4.20;;;;;;;;;;5089064;28;20239;-64
2022/07/19 03:31:01;;;;;;;7.37;4.50;;;;;;;;;;5099008;28;20212;-64
2022/07/19 03:33:30;;;;;;;4.60;4.07;;;;;;;;;;5091726;28;20734;-64
2022/07/19 03:35:58;;;;;;;5.60;3.93;;;;;;;;;;5094801;28;20707;-64
2022/07/19 03:38:26;;;;;;;5.03;4.53;;;;;;;;;;5098002;28;20572;-65
2022/07/19 03:40:55;;;;;;;4.90;4.50;;;;;;;;;;5097559;28;20226;-64
2022/07/19 03:43:23;;;;;;;5.55;4.20;;;;;;;;;;5092331;28;20241;-64
2022/07/19 03:45:51;;;;;;;7.45;4.22;;;;;;;;;;5090659;28;20301;-64
2022/07/19 03:48:21;;;;;;;5.10;4.40;;;;;;;;;;5090829;28;20204;-64
2022/07/19 03:50:49;;;;;;;5.85;4.68;;;;;;;;;;5085706;28;20569;-64
2022/07/19 03:53:17;;;;;;;5.25;3.72;;;;;;;;;;5097923;28;20238;-64
2022/07/19 03:55:45;;;;;;;5.65;3.88;;;;;;;;;;5084277;28;20235;-64
2022/07/19 03:58:14;;;;;;;6.97;4.50;;;;;;;;;;5097677;28;20236;-65
2022/07/19 04:00:43;;;;;;;5.05;4.55;;;;;;;;;;5094399;28;20258;-64
2022/07/19 04:03:11;;;;;;;4.63;3.95;;;;;;;;;;5086946;28;20223;-64
2022/07/19 04:05:39;;;;;;;5.32;4.28;;;;;;;;;;5097756;28;20249;-64
2022/07/19 04:08:07;;;;;;;8.55;4.57;;;;;;;;;;5085514;28;20238;-64
2022/07/19 04:10:35;;;;;;;7.78;4.00;;;;;;;;;;5098099;28;20220;-64
2022/07/19 04:13:03;;;;;;;4.60;4.20;;;;;;;;;;5086401;28;20661;-64
2022/07/19 04:15:32;;;;;;;4.72;4.00;;;;;;;;;;5095180;28;20653;-64
2022/07/19 04:18:00;;;;;;;5.22;4.50;;;;;;;;;;5091529;28;20303;-64
2022/07/19 04:20:28;;;;;;;4.97;3.85;;;;;;;;;;5081120;28;20253;-65
2022/07/19 04:22:57;;;;;;;4.45;3.63;;;;;;;;;;5090657;28;20276;-65
2022/07/19 04:25:25;;;;;;;5.30;3.87;;;;;;;;;;5091074;28;20249;-65
2022/07/19 04:27:54;;;;;;;6.73;4.23;;;;;;;;;;5083244;28;20215;-65
2022/07/19 04:30:22;;;;;;;4.83;4.33;;;;;;;;;;5097465;28;20205;-65
2022/07/19 04:32:51;;;;;;;7.07;4.30;;;;;;;;;;5097240;28;20237;-65
2022/07/19 04:35:19;;;;;;;12.03;4.73;;;;;;;;;;5092134;28;20241;-65
2022/07/19 04:37:47;;;;;;;9.67;5.17;;;;;;;;;;5096830;28;20251;-65
2022/07/19 04:40:15;;;;;;;5.37;4.20;;;;;;;;;;5083913;28;20231;-65
2022/07/19 04:42:43;;;;;;;6.37;4.27;;;;;;;;;;5095670;28;20239;-65
2022/07/19 04:45:11;;;;;;;7.50;4.43;;;;;;;;;;5096898;28;20207;-65
2022/07/19 04:47:39;;;;;;;5.63;4.50;;;;;;;;;;5094766;28;20232;-65
2022/07/19 04:50:09;;;;;;;5.17;4.47;;;;;;;;;;5101612;28;20207;-65
2022/07/19 04:52:37;;;;;;;9.53;5.37;;;;;;;;;;5088857;28;20235;-64
2022/07/19 04:55:06;;;;;;;5.33;4.63;;;;;;;;;;5098093;28;20579;-65
2022/07/19 04:57:34;;;;;;;9.87;4.60;;;;;;;;;;5097980;28;20234;-64
2022/07/19 05:00:02;;;;;;;11.47;5.33;;;;;;;;;;5087696;28;20702;-64
2022/07/19 05:02:30;;;;;;;7.00;4.90;;;;;;;;;;5100971;28;20238;-64
2022/07/19 05:04:58;;;;;;;11.77;5.00;;;;;;;;;;5097033;28;20231;-65
2022/07/19 05:07:28;;;;;;;8.93;5.10;;;;;;;;;;5083932;28;20215;-64
2022/07/19 05:09:56;;;;;;;6.17;4.93;;;;;;;;;;5084683;28;20210;-64
2022/07/19 05:12:28;;;;;;;6.93;4.90;;;;;;;;;;5084598;28;20221;-65
2022/07/19 05:14:56;;;;;;;8.77;5.10;;;;;;;;;;5092316;28;20224;-65
2022/07/19 05:17:24;;;;;;;5.13;4.40;;;;;;;;;;5089811;28;20586;-65
2022/07/19 05:23:21;;;;;;;8.53;5.50;;;;;;;;;;5096830;28;20241;-66
2022/07/19 05:25:49;;;;;;;8.80;5.33;;;;;;;;;;5092391;28;20218;-66
2022/07/19 05:28:17;;;;;;;6.87;5.10;;;;;;;;;;5096371;28;20242;-66
2022/07/19 05:30:45;;;;;;;4.93;4.47;;;;;;;;;;5099688;28;20240;-66
2022/07/19 05:33:13;;;;;;;9.53;4.90;;;;;;;;;;5108743;28;20222;-65
2022/07/19 05:35:41;;;;;;;6.37;4.80;;;;;;;;;;5092476;28;20203;-66
2022/07/19 05:38:09;;;;;;;7.53;4.70;;;;;;;;;;5109696;28;20207;-66
2022/07/19 05:40:38;;;;;;;8.40;5.43;;;;;;;;;;5091301;28;20613;-65
2022/07/19 05:43:06;;;;;;;7.43;5.77;;;;;;;;;;5090129;28;20227;-63
2022/07/19 05:45:34;;;;;;;6.70;4.70;;;;;;;;;;5097022;28;20198;-63
2022/07/19 05:48:02;;;;;;;5.77;5.33;;;;;;;;;;5101685;28;20200;-63
2022/07/19 05:50:30;;;;;;;7.60;5.37;;;;;;;;;;5105939;28;20217;-64
2022/07/19 05:52:58;;;;;;;7.23;4.67;;;;;;;;;;5099371;28;20229;-63
2022/07/19 05:55:26;;;;;;;5.07;4.40;;;;;;;;;;5098774;28;20204;-63
2022/07/19 05:57:56;;;;;;;6.17;3.83;;;;;;;;;;5105729;28;20207;-64
2022/07/19 06:00:24;;;;;;;6.60;4.10;;;;;;;;;;5091266;28;20227;-64
2022/07/19 06:02:52;;;;;;;12.20;5.67;;;;;;;;;;5101033;28;20251;-64
2022/07/19 06:05:20;;;;;;;4.63;4.20;;;;;;;;;;5099147;28;20197;-64
2022/07/19 06:07:49;;;;;;;4.73;4.33;;;;;;;;;;5098843;28;20204;-64
2022/07/19 06:10:17;;;;;;;5.30;4.13;;;;;;;;;;5097645;28;20677;-64
2022/07/19 06:12:44;;;;;;;6.03;4.20;;;;;;;;;;5109758;28;20233;-64
2022/07/19 06:15:14;;;;;;;5.00;4.32;;;;;;;;;;5102473;28;20429;-64
2022/07/19 06:17:42;;;;;;;6.97;4.57;;;;;;;;;;5093668;28;20227;-64
2022/07/19 06:20:11;;;;;;;8.80;4.85;;;;;;;;;;5086826;28;20213;-64
2022/07/19 06:22:39;;;;;;;6.07;4.78;;;;;;;;;;5086728;28;20238;-64
2022/07/19 06:25:07;;;;;;;5.25;4.75;;;;;;;;;;5097404;28;20271;-64
2022/07/19 06:27:35;;;;;;;6.00;4.85;;;;;;;;;;5095048;28;20206;-64
2022/07/19 06:30:04;;;;;;;6.07;4.18;;;;;;;;;;5099125;28;20227;-64
2022/07/19 06:32:33;;;;;;;14.80;4.72;;;;;;;;;;5099851;28;20232;-64
2022/07/19 06:35:01;;;;;;;5.57;5.07;;;;;;;;;;5096059;28;20217;-64
2022/07/19 06:37:29;;;;;;;8.40;4.47;;;;;;;;;;5099172;28;20205;-63
2022/07/19 06:39:57;;;;;;;4.53;4.07;;;;;;;;;;5099000;28;20252;-64
2022/07/19 06:42:25;;;;;;;4.43;4.00;;;;;;;;;;5098814;28;20687;-64
2022/07/19 06:44:53;;;;;;;4.90;4.50;;;;;;;;;;5099579;28;20718;-63
2022/07/19 06:47:21;;;;;;;6.25;4.53;;;;;;;;;;5097081;28;20251;-64
2022/07/19 06:49:50;;;;;;;6.05;4.50;;;;;;;;;;5095821;28;20236;-63
2022/07/19 06:52:18;;;;;;;5.40;4.68;;;;;;;;;;5093303;28;20201;-63
2022/07/19 06:54:46;;;;;;;6.72;4.75;;;;;;;;;;5097400;28;20225;-64
2022/07/19 06:57:14;;;;;;;5.35;4.35;;;;;;;;;;5100734;28;20193;-63
2022/07/19 06:59:42;;;;;;;5.38;4.28;;;;;;;;;;5097413;28;20193;-64
2022/07/19 07:02:10;;;;;;;4.57;4.18;;;;;;;;;;5097002;28;20221;-64
2022/07/19 07:04:38;;;;;;;4.50;4.00;;;;;;;;;;5096943;28;20688;-62
2022/07/19 07:07:14;;;;;;;6.20;4.57;;;;;;;;;;5096080;28;20200;-62
2022/07/19 07:09:42;;;;;;;5.40;4.55;;;;;;;;;;5093629;28;20230;-62
2022/07/19 07:12:11;;;;;;;10.07;4.35;;;;;;;;;;5097924;28;20201;-64
2022/07/19 07:14:39;;;;;;;5.25;4.57;;;;;;;;;;5092784;28;20224;-63
2022/07/19 07:17:07;;;;;;;7.07;4.35;;;;;;;;;;5094473;28;20668;-64
2022/07/19 07:19:35;;;;;;;5.68;4.35;;;;;;;;;;5096510;28;20205;-61
2022/07/19 07:22:03;;;;;;;5.00;4.40;;;;;;;;;;5097762;28;20217;-63
2022/07/19 07:24:32;;;;;;;5.28;4.78;;;;;;;;;;5096737;28;20241;-63
2022/07/19 07:27:01;;;;;;;5.20;4.53;;;;;;;;;;5096024;28;20203;-62
2022/07/19 07:29:29;;;;;;;6.75;4.93;;;;;;;;;;5094518;28;20254;-63
2022/07/19 07:31:57;;;;;;;7.13;5.03;;;;;;;;;;5094780;28;20197;-63
2022/07/19 07:34:25;;;;;;;5.45;4.20;;;;;;;;;;5098680;28;20220;-62
2022/07/19 07:36:53;;;;;;;5.72;4.57;;;;;;;;;;5098552;28;20202;-62
2022/07/19 07:39:21;;;;;;;6.57;4.85;;;;;;;;;;5107337;28;20251;-63
2022/07/19 07:41:51;;;;;;;6.20;5.00;;;;;;;;;;5094873;28;20221;-64
2022/07/19 07:44:31;;;;;;;6.18;4.85;;;;;;;;;;5097661;28;20225;-64
2022/07/19 07:46:59;;;;;;;6.07;5.10;;;;;;;;;;5092806;28;20299;-64
2022/07/19 07:49:28;;;;;;;5.88;4.80;;;;;;;;;;5094126;28;20233;-64
2022/07/19 07:51:56;;;;;;;7.05;5.05;;;;;;;;;;5097461;28;20243;-66
2022/07/19 07:54:24;;;;;;;7.68;5.20;;;;;;;;;;5097802;28;20221;-65
2022/07/19 07:56:54;;;;;;;8.27;4.35;;;;;;;;;;5098394;28;20723;-64
2022/07/19 07:59:22;;;;;;;7.07;4.90;;;;;;;;;;5096314;28;20266;-64
2022/07/19 08:01:50;;;;;;;9.10;4.55;;;;;;;;;;5094831;28;20310;-64
2022/07/19 08:04:25;;;;;;;7.72;4.45;;;;;;;;;;5095576;28;20692;-64
2022/07/19 08:06:54;;;;;;;5.53;4.80;;;;;;;;;;5097282;28;20228;-65
2022/07/19 08:09:22;;;;;;;10.40;5.82;;;;;;;;;;5097013;28;20617;-64
2022/07/19 08:11:50;;;;;;;5.13;4.43;;;;;;;;;;5099219;28;20205;-64
2022/07/19 08:14:19;;;;;;;7.60;5.10;;;;;;;;;;5094658;28;20224;-64
2022/07/19 08:16:47;;;;;;;6.22;4.70;;;;;;;;;;5097748;28;20205;-64
2022/07/19 08:19:15;;;;;;;4.80;4.38;;;;;;;;;;5095577;28;20288;-64
2022/07/19 08:21:43;;;;;;;5.75;5.03;;;;;;;;;;5091763;28;20730;-62
2022/07/19 08:24:11;;;;;;;5.18;4.63;;;;;;;;;;5088806;28;20279;-62
2022/07/19 08:26:40;;;;;;;6.45;5.57;;;;;;;;;;5095226;28;20233;-63
2022/07/19 08:29:08;;;;;;;5.60;5.00;;;;;;;;;;5095182;28;20705;-63
2022/07/19 08:31:38;;;;;;;6.50;5.05;;;;;;;;;;5094553;28;20205;-63
2022/07/19 08:34:07;;;;;;;5.93;5.43;;;;;;;;;;5094784;28;20209;-63
2022/07/19 08:36:35;;;;;;;9.90;6.00;;;;;;;;;;5096811;28;20246;-63
2022/07/19 08:39:03;;;;;;;6.45;5.05;;;;;;;;;;5093963;28;20258;-63
2022/07/19 08:41:34;;;;;;;5.60;5.00;;;;;;;;;;5096576;28;20197;-63
2022/07/19 08:44:03;;;;;;;10.15;5.70;;;;;;;;;;5096799;28;20232;-63
2022/07/19 08:46:31;;;;;;;7.72;4.78;;;;;;;;;;5091214;28;20224;-63
2022/07/19 08:49:02;;;;;;;7.10;5.00;;;;;;;;;;5095089;28;20258;-62
2022/07/19 08:51:30;;;;;;;6.00;5.40;;;;;;;;;;5098390;28;20572;-63
2022/07/19 08:53:58;;;;;;;6.72;5.43;;;;;;;;;;5093442;28;20264;-63
2022/07/19 08:59:08;;;;;;;6.93;5.60;;;;;;;;;;5052390;28;20598;-63
2022/07/19 09:01:36;;;;;;;6.85;5.28;;;;;;;;;;5097262;28;20205;-63
2022/07/19 09:04:11;;;;;;;7.18;4.75;;;;;;;;;;5091930;28;20275;-63
2022/07/19 09:06:41;;;;;;;6.13;5.18;;;;;;;;;;5098748;28;20197;-63
2022/07/19 09:09:09;;;;;;;5.60;4.88;;;;;;;;;;5094066;28;20193;-63
2022/07/19 09:11:38;;;;;;;7.20;5.50;;;;;;;;;;5091409;28;20223;-63
2022/07/19 09:14:07;;;;;;;5.85;5.28;;;;;;;;;;5095465;28;20216;-63
2022/07/19 09:16:49;;;;;;;6.75;4.63;;;;;;;;;;5090744;28;20205;-64
2022/07/19 09:19:19;;;;;;;6.10;5.47;;;;;;;;;;5093553;28;20205;-65
2022/07/19 09:21:58;;;;;;;7.53;5.00;;;;;;;;;;5096715;28;20202;-65
2022/07/19 09:24:26;;;;;;;7.10;4.60;;;;;;;;;;5094579;28;20865;-65
2022/07/19 09:27:01;;;;;;;9.18;5.00;;;;;;;;;;5098302;28;20193;-65
2022/07/19 09:29:30;;;;;;;8.48;5.05;;;;;;;;;;5096779;28;20193;-63
2022/07/19 09:31:59;;;;;;;10.35;5.18;;;;;;;;;;5095641;28;20232;-64
2022/07/19 09:34:29;;;;;;;12.32;5.88;;;;;;;;;;5103607;28;20227;-64
2022/07/19 09:37:25;;;;;;;16.00;6.40;;;;;;;;;;5092346;28;20619;-64
2022/07/19 09:39:53;;;;;;;10.40;4.95;;;;;;;;;;5063895;28;20209;-64
2022/07/19 09:42:22;;;;;;;8.25;5.13;;;;;;;;;;5101236;28;20201;-64
2022/07/19 09:44:58;;;;;;;9.52;4.60;;;;;;;;;;5099582;28;20232;-64
2022/07/19 09:47:35;;;;;;;13.07;5.53;;;;;;;;;;5099066;28;20228;-64
2022/07/19 09:50:06;;;;;;;4.60;4.20;;;;;;;;;;5097923;28;20236;-64
2022/07/19 09:52:35;;;;;;;5.85;4.88;;;;;;;;;;5096354;28;20201;-64
2022/07/19 09:55:12;;;;;;;6.78;4.22;;;;;;;;;;5099513;28;20284;-64
2022/07/19 09:57:41;;;;;;;5.13;4.72;;;;;;;;;;5095621;28;20241;-64
2022/07/19 10:00:10;;;;;;;4.95;4.55;;;;;;;;;;5100507;28;20201;-64
2022/07/19 10:02:39;;;;;;;7.40;4.82;;;;;;;;;;5103745;28;20603;-64
2022/07/19 10:05:10;;;;;;;5.55;4.50;;;;;;;;;;5097872;28;20229;-63
2022/07/19 10:07:38;;;;;;;6.75;4.75;;;;;;;;;;5096817;28;20246;-64
2022/07/19 10:10:07;;;;;;;5.75;4.40;;;;;;;;;;5096275;28;20240;-64
2022/07/19 10:12:37;;;;;;;6.10;4.78;;;;;;;;;;5097899;28;20217;-63
2022/07/19 10:15:05;;;;;;;6.00;4.15;;;;;;;;;;5093071;28;20221;-64
2022/07/19 10:17:36;;;;;;;7.18;5.15;;;;;;;;;;5096377;28;20205;-63
2022/07/19 10:20:06;;;;;;;8.00;4.30;;;;;;;;;;5100049;28;20200;-63
2022/07/19 10:22:39;;;;;;;7.47;4.20;;;;;;;;;;5095736;28;20700;-62
2022/07/19 10:25:12;;;;;;;4.03;3.60;;;;;;;;;;5093867;28;20264;-63
2022/07/19 10:27:40;;;;;;;8.48;4.85;;;;;;;;;;5082602;28;20233;-61
2022/07/19 10:30:23;;;;;;;7.50;4.25;;;;;;;;;;5086264;28;20256;-62
2022/07/19 10:32:53;;;;;;;4.97;4.20;;;;;;;;;;5098038;28;20216;-62
2022/07/19 10:35:22;;;;;;;5.38;4.50;;;;;;;;;;5091666;28;20228;-61
2022/07/19 10:37:53;;;;;;;6.30;4.70;;;;;;;;;;5096628;28;20201;-61
2022/07/19 10:40:37;;;;;;;6.32;5.13;;;;;;;;;;5089844;28;20239;-62
2022/07/19 10:43:06;;;;;;;5.53;4.45;;;;;;;;;;5098437;28;20232;-62
2022/07/19 10:45:34;;;;;;;6.32;4.55;;;;;;;;;;5095926;28;20236;-62
2022/07/19 10:48:09;;;;;;;8.63;4.68;;;;;;;;;;5103340;28;20198;-62
2022/07/19 10:50:54;;;;;;;6.85;4.88;;;;;;;;;;5091683;28;20196;-62
2022/07/19 10:53:56;;;;;;;6.05;5.00;;;;;;;;;;5097659;28;20217;-61
2022/07/19 10:56:42;;;;;;;6.10;4.60;;;;;;;;;;5105107;28;20250;-62
2022/07/19 10:59:40;;;;;;;7.03;4.97;;;;;;;;;;5096394;28;20200;-62
2022/07/19 11:02:08;;;;;;;6.43;4.10;;;;;;;;;;5099778;28;20233;-63
2022/07/19 11:04:57;;;;;;;7.75;5.07;;;;;;;;;;5098902;28;20259;-62
2022/07/19 11:07:25;;;;;;;5.78;4.43;;;;;;;;;;5097754;28;20660;-62
2022/07/19 11:09:55;;;;;;;7.53;4.85;;;;;;;;;;5098091;28;20247;-62
2022/07/19 11:12:28;;;;;;;7.72;5.13;;;;;;;;;;5098766;28;20241;-61
2022/07/19 11:14:56;;;;;;;5.18;4.78;;;;;;;;;;5098072;28;20209;-60
2022/07/19 11:17:54;;;;;;;5.80;4.60;;;;;;;;;;5097260;28;20205;-60
2022/07/19 11:20:23;;;;;;;5.18;4.78;;;;;;;;;;5098047;28;20193;-60
2022/07/19 11:22:51;;;;;;;5.47;4.97;;;;;;;;;;5097169;28;20281;-61
2022/07/19 11:25:24;;;;;;;9.57;4.80;;;;;;;;;;5099628;28;20253;-61
2022/07/19 11:27:54;;;;;;;5.18;4.68;;;;;;;;;;5098166;28;20236;-61
2022/07/19 11:30:22;;;;;;;5.57;4.75;;;;;;;;;;5097761;28;20240;-60
2022/07/19 11:32:52;;;;;;;8.65;4.70;;;;;;;;;;5097811;28;20209;-60
2022/07/19 11:35:20;;;;;;;7.07;5.32;;;;;;;;;;5094240;28;20423;-60
2022/07/19 11:37:48;;;;;;;4.63;4.05;;;;;;;;;;5097833;28;20236;-60
2022/07/19 11:40:17;;;;;;;8.73;4.65;;;;;;;;;;5097123;28;21583;-61
2022/07/19 11:42:46;;;;;;;6.75;4.78;;;;;;;;;;5090458;28;20202;-60
2022/07/19 11:45:41;;;;;;;5.50;4.90;;;;;;;;;;5095831;28;20258;-61
2022/07/19 11:48:11;;;;;;;4.95;4.47;;;;;;;;;;5097862;28;20254;-61
2022/07/19 11:50:40;;;;;;;11.93;4.45;;;;;;;;;;5097818;28;20205;-60
2022/07/19 11:53:20;;;;;;;4.75;4.00;;;;;;;;;;5097959;28;20788;-60
2022/07/19 11:55:48;;;;;;;11.20;3.83;;;;;;;;;;5090298;28;20657;-60
2022/07/19 11:58:16;;;;;;;5.05;3.70;;;;;;;;;;5089615;28;20675;-60
2022/07/19 12:00:46;;;;;;;5.43;3.70;;;;;;;;;;5103785;28;20647;-61
2022/07/19 12:03:15;;;;;;;5.93;3.83;;;;;;;;;;5083167;28;20740;-61
2022/07/19 12:05:55;;;;;;;7.40;4.13;;;;;;;;;;5093065;28;20740;-60
2022/07/19 12:08:32;;;;;;;4.93;3.97;;;;;;;;;;5088270;28;20621;-62
2022/07/19 12:11:00;;;;;;;6.05;4.22;;;;;;;;;;5088269;28;20612;-62
2022/07/19 12:13:29;;;;;;;4.22;3.70;;;;;;;;;;5092606;28;20264;-61
2022/07/19 12:16:01;;;;;;;4.45;4.10;;;;;;;;;;5086724;28;20212;-63
2022/07/19 12:18:47;;;;;;;9.18;4.13;;;;;;;;;;5088837;28;20200;-62
2022/07/19 12:21:17;;;;;;;4.53;3.70;;;;;;;;;;5084403;28;20307;-62
2022/07/19 12:23:59;;;;;;;7.85;4.28;;;;;;;;;;5098776;28;20282;-62
2022/07/19 12:26:27;;;;;;;8.13;3.78;;;;;;;;;;5096952;28;20231;-61
2022/07/19 12:29:22;;;;;;;5.93;3.90;;;;;;;;;;5092329;28;20205;-62
2022/07/19 12:31:53;;;;;;;7.55;3.97;;;;;;;;;;5093112;28;20229;-60
2022/07/19 12:34:21;;;;;;;6.70;4.30;;;;;;;;;;5096970;28;20286;-61
2022/07/19 12:36:49;;;;;;;7.47;4.20;;;;;;;;;;5097319;28;20205;-60
2022/07/19 12:39:18;;;;;;;4.50;3.83;;;;;;;;;;5090164;28;20223;-60
2022/07/19 12:42:00;;;;;;;5.38;3.55;;;;;;;;;;5097014;28;20212;-60
2022/07/19 12:44:28;;;;;;;3.97;3.58;;;;;;;;;;5090292;28;20225;-60
2022/07/19 12:46:58;;;;;;;7.50;3.78;;;;;;;;;;5090778;28;20229;-63
2022/07/19 12:49:47;;;;;;;7.20;3.65;;;;;;;;;;5095344;28;20296;-60
2022/07/19 12:52:15;;;;;;;7.05;3.80;;;;;;;;;;5097866;28;20197;-60
2022/07/19 12:54:43;;;;;;;3.55;3.33;;;;;;;;;;5094777;28;20217;-61
2022/07/19 12:57:11;;;;;;;6.97;3.80;;;;;;;;;;5094451;28;20205;-62
2022/07/19 12:59:41;;;;;;;3.90;3.22;;;;;;;;;;5080216;28;20585;-61
2022/07/19 13:02:12;;;;;;;7.05;3.42;;;;;;;;;;5089772;28;20283;-60
2022/07/19 13:04:41;;;;;;;4.82;4.05;;;;;;;;;;5084193;28;20224;-61
2022/07/19 13:07:09;;;;;;;5.13;3.58;;;;;;;;;;5086269;28;20248;-61
2022/07/19 13:09:37;;;;;;;4.57;3.30;;;;;;;;;;5086279;28;20652;-61
2022/07/19 13:12:06;;;;;;;4.18;3.83;;;;;;;;;;5083695;28;20240;-61
2022/07/19 13:14:34;;;;;;;4.53;3.75;;;;;;;;;;5094535;28;20279;-62
2022/07/19 13:17:03;;;;;;;6.07;3.40;;;;;;;;;;5102173;28;20675;-61
2022/07/19 13:19:32;;;;;;;3.33;3.13;;;;;;;;;;5098980;28;20205;-62
2022/07/19 13:22:01;;;;;;;7.75;3.70;;;;;;;;;;5098383;28;20201;-61
2022/07/19 13:24:28;;;;;;;3.45;3.25;;;;;;;;;;5098342;28;20259;-61
2022/07/19 13:27:17;;;;;;;4.72;3.40;;;;;;;;;;5100696;28;20198;-61
2022/07/19 13:29:45;;;;;;;6.15;3.67;;;;;;;;;;5096667;28;20543;-61
2022/07/19 13:32:14;;;;;;;6.20;3.83;;;;;;;;;;5103272;28;20209;-61
2022/07/19 13:34:44;;;;;;;4.60;3.72;;;;;;;;;;5101706;28;20700;-61
2022/07/19 13:37:12;;;;;;;3.88;3.38;;;;;;;;;;5099048;28;20603;-62
2022/07/19 13:39:40;;;;;;;6.05;3.55;;;;;;;;;;5101298;28;20240;-62
2022/07/19 13:42:08;;;;;;;3.97;3.63;;;;;;;;;;5084292;28;20264;-62
2022/07/19 13:44:36;;;;;;;4.80;3.75;;;;;;;;;;5094995;28;20256;-61
2022/07/19 13:47:04;;;;;;;6.05;3.67;;;;;;;;;;5092104;28;20256;-62
2022/07/19 13:49:32;;;;;;;4.07;3.67;;;;;;;;;;5092871;28;20711;-61
2022/07/19 13:52:01;;;;;;;4.53;3.40;;;;;;;;;;5101667;28;20216;-62
2022/07/19 13:54:29;;;;;;;5.55;3.67;;;;;;;;;;5100357;28;20229;-61
2022/07/19 13:56:58;;;;;;;6.00;3.22;;;;;;;;;;5094339;28;20212;-61
2022/07/19 13:59:26;;;;;;;4.07;3.38;;;;;;;;;;5098926;28;20205;-61
2022/07/19 14:01:54;;;;;;;3.70;3.17;;;;;;;;;;5098977;28;20205;-61
2022/07/19 14:04:22;;;;;;;4.60;3.35;;;;;;;;;;5099734;28;20225;-61
2022/07/19 14:06:51;;;;;;;3.20;3.00;;;;;;;;;;5099851;28;20251;-61
2022/07/19 14:09:20;;;;;;;4.30;3.25;;;;;;;;;;5099770;28;20232;-61
2022/07/19 14:11:48;;;;;;;5.10;3.33;;;;;;;;;;5088025;28;20677;-61
2022/07/19 14:14:16;;;;;;;3.60;3.30;;;;;;;;;;5094060;28;20249;-61
2022/07/19 14:16:45;;;;;;;3.42;3.00;;;;;;;;;;5091820;28;20686;-62
2022/07/19 14:19:14;;;;;;;3.65;3.35;;;;;;;;;;5087330;28;20205;-61
2022/07/19 14:21:42;;;;;;;7.28;2.83;;;;;;;;;;5086759;28;20229;-62
2022/07/19 14:24:10;;;;;;;4.68;2.95;;;;;;;;;;5089609;28;20746;-62
2022/07/19 14:26:40;;;;;;;3.92;3.22;;;;;;;;;;5079456;28;20234;-61
2022/07/19 14:29:08;;;;;;;3.95;3.20;;;;;;;;;;5082814;28;20214;-61
2022/07/19 14:31:36;;;;;;;4.75;4.22;;;;;;;;;;5092867;28;20577;-61
2022/07/19 14:34:10;;;;;;;3.15;2.75;;;;;;;;;;5084388;28;20229;-61
2022/07/19 14:36:58;;;;;;;3.55;3.25;;;;;;;;;;5092608;28;20213;-61
2022/07/19 14:39:26;;;;;;;4.47;3.30;;;;;;;;;;5083114;28;20248;-61
2022/07/19 14:41:55;;;;;;;4.85;3.25;;;;;;;;;;5087363;28;20209;-62
2022/07/19 14:44:24;;;;;;;3.22;3.03;;;;;;;;;;5090207;28;20264;-61
2022/07/19 14:46:53;;;;;;;6.15;3.50;;;;;;;;;;5090600;28;20312;-61
2022/07/19 14:49:21;;;;;;;5.25;3.90;;;;;;;;;;5097577;28;20213;-61
2022/07/19 14:51:49;;;;;;;3.95;3.35;;;;;;;;;;5099019;28;20554;-62
2022/07/19 14:54:17;;;;;;;3.53;3.30;;;;;;;;;;5099198;28;20640;-62
2022/07/19 14:56:51;;;;;;;4.78;3.65;;;;;;;;;;5087679;28;20206;-62
2022/07/19 14:59:21;;;;;;;3.78;3.33;;;;;;;;;;5098743;28;20231;-61
2022/07/19 15:01:49;;;;;;;7.00;3.92;;;;;;;;;;5089978;28;20264;-61
2022/07/19 15:04:17;;;;;;;4.78;3.95;;;;;;;;;;5088567;28;20220;-62